createdAt,value
2022-10-04T00:01:27.867Z,75.71
2022-10-04T00:06:30.226Z,75.58
2022-10-04T00:11:43.457Z,75.77
2022-10-04T00:16:45.798Z,75.74
2022-10-04T00:21:56.505Z,75.95
2022-10-04T00:27:24.066Z,76.01
2022-10-04T00:32:31.426Z,75.89
2022-10-04T00:38:08.868Z,75.79
2022-10-04T00:43:24.447Z,75.91
2022-10-04T00:48:37.715Z,75.78
2022-10-04T00:53:52.711Z,75.86
2022-10-04T00:58:54.455Z,75.71
2022-10-04T01:04:01.727Z,75.90
2022-10-04T01:09:08.626Z,75.85
2022-10-04T01:14:55.016Z,75.98
2022-10-04T01:19:57.186Z,75.88
2022-10-04T01:24:59.000Z,75.82
2022-10-04T01:30:02.297Z,75.97
2022-10-04T01:35:05.105Z,75.87
2022-10-04T01:40:11.138Z,75.96
2022-10-04T01:45:51.664Z,76.34
2022-10-04T01:51:00.196Z,75.98
2022-10-04T01:56:15.256Z,76.05
2022-10-04T02:01:34.924Z,76.07
2022-10-04T02:06:42.965Z,76.05
2022-10-04T02:11:47.321Z,75.96
2022-10-04T02:16:52.467Z,76.02
2022-10-04T02:21:56.481Z,75.98
2022-10-04T02:26:58.725Z,75.98
2022-10-04T02:32:21.712Z,76.07
2022-10-04T02:37:26.797Z,76.00
2022-10-04T02:43:00.647Z,76.26
2022-10-04T02:48:13.551Z,76.24
2022-10-04T02:53:27.274Z,76.13
2022-10-04T02:58:30.693Z,76.06
2022-10-04T03:03:47.962Z,76.22
2022-10-04T03:08:59.307Z,76.20
2022-10-04T03:14:05.154Z,76.03
2022-10-04T03:19:09.141Z,76.06
2022-10-04T03:24:19.821Z,76.29
2022-10-04T03:29:24.251Z,76.27
2022-10-04T03:34:36.181Z,76.35
2022-10-04T03:39:47.563Z,76.34
2022-10-04T03:44:51.752Z,76.29
2022-10-04T03:49:55.616Z,76.57
2022-10-04T03:55:01.976Z,76.23
2022-10-04T04:00:06.926Z,76.15
2022-10-04T04:05:20.145Z,76.39
2022-10-04T04:10:26.617Z,76.43
2022-10-04T04:15:31.265Z,76.38
2022-10-04T04:20:38.465Z,76.45
2022-10-04T04:25:43.977Z,76.50
2022-10-04T04:30:50.495Z,76.33
2022-10-04T04:36:03.022Z,76.36
2022-10-04T04:41:10.631Z,76.14
2022-10-04T04:46:27.013Z,76.38
2022-10-04T04:51:32.478Z,76.59
2022-10-04T04:56:35.349Z,76.56
2022-10-04T05:01:44.874Z,76.49
2022-10-04T05:07:00.186Z,76.52
2022-10-04T05:12:19.223Z,76.62
2022-10-04T05:17:27.810Z,76.71
2022-10-04T05:22:31.413Z,76.61
2022-10-04T05:27:38.904Z,76.69
2022-10-04T05:33:08.572Z,76.78
2022-10-04T05:38:33.735Z,76.62
2022-10-04T05:43:37.740Z,76.53
2022-10-04T05:48:42.766Z,76.65
2022-10-04T05:53:44.698Z,76.53
2022-10-04T05:59:28.308Z,76.66
2022-10-04T06:04:51.726Z,76.55
2022-10-04T06:10:08.322Z,76.56
2022-10-04T06:15:22.013Z,76.60
2022-10-04T06:20:44.502Z,76.46
2022-10-04T06:25:55.185Z,76.31
2022-10-04T06:31:27.747Z,76.48
2022-10-04T06:36:57.313Z,76.48
2022-10-04T06:42:17.463Z,76.35
2022-10-04T06:47:51.009Z,76.35
2022-10-04T06:53:11.531Z,76.41
2022-10-04T06:58:17.196Z,76.32
2022-10-04T07:03:32.411Z,76.35
2022-10-04T07:08:39.807Z,76.15
2022-10-04T07:14:17.739Z,76.37
2022-10-04T07:19:19.485Z,76.06
2022-10-04T07:24:34.731Z,76.17
2022-10-04T07:29:42.573Z,75.97
2022-10-04T07:34:53.535Z,75.96
2022-10-04T07:40:01.271Z,75.97
2022-10-04T07:45:18.140Z,75.74
2022-10-04T07:50:26.895Z,75.80
2022-10-04T07:55:33.275Z,75.93
2022-10-04T08:00:52.719Z,75.88
2022-10-04T08:06:11.586Z,75.82
2022-10-04T08:11:32.267Z,75.73
2022-10-04T08:16:38.303Z,75.87
2022-10-04T08:22:13.590Z,75.80
2022-10-04T08:27:30.409Z,75.75
2022-10-04T08:32:42.882Z,75.83
2022-10-04T08:38:17.024Z,75.72
2022-10-04T08:43:56.884Z,75.72
2022-10-04T08:49:22.403Z,75.64
2022-10-04T08:54:46.681Z,75.57
2022-10-04T09:00:07.696Z,75.47
2022-10-04T09:05:15.559Z,75.33
2022-10-04T09:10:33.406Z,75.39
2022-10-04T09:15:38.186Z,75.38
2022-10-04T09:20:45.714Z,75.15
2022-10-04T09:26:25.056Z,75.03
2022-10-04T09:31:48.259Z,75.07
2022-10-04T09:37:11.387Z,74.87
2022-10-04T09:42:40.007Z,74.54
2022-10-04T09:48:02.795Z,74.45
2022-10-04T09:53:42.358Z,74.17
2022-10-04T09:59:02.603Z,74.06
2022-10-04T10:04:28.802Z,73.94
2022-10-04T10:09:59.434Z,73.97
2022-10-04T10:15:30.619Z,73.88
2022-10-04T10:21:04.173Z,73.85
2022-10-04T10:26:24.147Z,73.67
2022-10-04T10:31:48.251Z,73.65
2022-10-04T10:37:10.041Z,73.64
2022-10-04T10:42:27.645Z,73.62
2022-10-04T10:47:31.707Z,73.56
2022-10-04T10:53:07.723Z,73.44
2022-10-04T10:58:22.771Z,73.55
2022-10-04T11:03:32.322Z,73.39
2022-10-04T11:09:12.941Z,73.27
2022-10-04T11:14:20.837Z,73.37
2022-10-04T11:19:31.599Z,73.21
2022-10-04T11:25:04.707Z,73.01
2022-10-04T11:30:23.568Z,73.00
2022-10-04T11:35:31.427Z,73.01
2022-10-04T11:40:54.710Z,72.60
2022-10-04T11:46:33.822Z,72.20
2022-10-04T11:51:35.659Z,71.80
2022-10-04T11:56:41.829Z,71.37
2022-10-04T12:02:09.366Z,71.07
2022-10-04T12:07:44.985Z,71.17
2022-10-04T12:13:23.334Z,71.46
2022-10-04T12:18:40.055Z,71.71
2022-10-04T12:24:00.007Z,71.70
2022-10-04T12:29:01.911Z,71.70
2022-10-04T12:34:13.511Z,71.24
2022-10-04T12:39:34.149Z,70.62
2022-10-04T12:45:13.763Z,70.29
2022-10-04T12:50:42.911Z,70.33
2022-10-04T12:55:58.237Z,69.82
2022-10-04T13:01:26.337Z,69.82
2022-10-04T13:06:54.771Z,69.41
2022-10-04T13:12:14.875Z,69.64
2022-10-04T13:17:42.603Z,69.88
2022-10-04T13:23:08.547Z,69.87
2022-10-04T13:28:42.687Z,69.70
2022-10-04T13:34:35.964Z,69.23
2022-10-04T13:40:02.320Z,69.22
2022-10-04T13:45:07.161Z,69.28
2022-10-04T13:50:14.986Z,69.15
2022-10-04T13:55:55.528Z,69.23
2022-10-04T14:01:36.567Z,68.87
2022-10-04T14:07:00.968Z,68.64
2022-10-04T14:12:40.557Z,68.50
2022-10-04T14:17:57.506Z,68.40
2022-10-04T14:23:21.273Z,68.44
2022-10-04T14:29:08.583Z,68.27
2022-10-04T14:34:36.177Z,67.97
2022-10-04T14:40:15.843Z,67.76
2022-10-04T14:45:35.290Z,68.22
2022-10-04T14:51:15.496Z,67.86
2022-10-04T14:56:59.317Z,67.48
2022-10-04T15:02:01.116Z,67.87
2022-10-04T15:07:18.603Z,68.04
2022-10-04T15:12:58.623Z,67.75
2022-10-04T15:18:04.172Z,67.70
2022-10-04T15:23:39.814Z,67.57
2022-10-04T15:28:51.498Z,67.71
2022-10-04T15:34:03.305Z,67.64
2022-10-04T15:39:39.406Z,67.51
2022-10-04T15:45:02.356Z,67.60
2022-10-04T15:50:37.924Z,67.72
2022-10-04T15:55:54.193Z,68.00
2022-10-04T16:01:13.323Z,68.03
2022-10-04T16:06:28.195Z,68.25
2022-10-04T16:12:17.851Z,68.31
2022-10-04T16:17:21.956Z,68.60
2022-10-04T16:22:32.674Z,68.75
2022-10-04T16:27:37.127Z,68.80
2022-10-04T16:32:39.002Z,68.95
2022-10-04T16:37:53.562Z,69.24
2022-10-04T16:43:04.397Z,69.04
2022-10-04T16:48:15.134Z,69.12
2022-10-04T16:53:38.683Z,69.17
2022-10-04T16:58:58.238Z,69.20
2022-10-04T17:04:28.091Z,69.58
2022-10-04T17:09:29.931Z,69.52
2022-10-04T17:14:43.517Z,69.46
2022-10-04T17:19:54.168Z,69.50
2022-10-04T17:25:17.686Z,69.51
2022-10-04T17:30:26.527Z,69.58
2022-10-04T17:35:54.386Z,69.61
2022-10-04T17:41:19.470Z,69.67
2022-10-04T17:46:38.104Z,69.71
2022-10-04T17:52:01.671Z,69.64
2022-10-04T17:57:03.424Z,69.59
2022-10-04T18:02:17.422Z,69.61
2022-10-04T18:07:24.577Z,69.76
2022-10-04T18:12:35.534Z,69.71
2022-10-04T18:17:50.840Z,69.74
2022-10-04T18:23:17.755Z,69.75
2022-10-04T18:28:23.484Z,69.77
2022-10-04T18:33:37.863Z,69.70
2022-10-04T18:38:43.576Z,69.66
2022-10-04T18:44:05.203Z,69.91
2022-10-04T18:49:24.674Z,69.67
2022-10-04T18:54:52.205Z,69.49
2022-10-04T19:00:28.738Z,69.55
2022-10-04T19:05:52.854Z,69.61
2022-10-04T19:11:16.528Z,69.83
2022-10-04T19:16:56.590Z,69.55
2022-10-04T19:22:11.360Z,69.58
2022-10-04T19:27:32.060Z,69.66
2022-10-04T19:32:42.943Z,69.54
2022-10-04T19:38:16.618Z,69.77
2022-10-04T19:43:26.287Z,69.60
2022-10-04T19:48:33.832Z,69.63
2022-10-04T19:53:43.007Z,69.50
2022-10-04T19:59:10.857Z,69.51
2022-10-04T20:04:35.591Z,69.44
2022-10-04T20:09:37.323Z,69.48
2022-10-04T20:14:39.096Z,69.58
2022-10-04T20:19:41.236Z,69.64
2022-10-04T20:24:44.272Z,69.54
2022-10-04T20:29:49.078Z,69.49
2022-10-04T20:34:51.341Z,69.51
2022-10-04T20:39:56.592Z,69.59
2022-10-04T20:45:10.659Z,69.74
2022-10-04T20:50:36.172Z,69.66
2022-10-04T20:55:40.182Z,69.63
2022-10-04T21:00:52.634Z,69.63
2022-10-04T21:06:08.337Z,69.65
2022-10-04T21:11:20.641Z,69.64
2022-10-04T21:16:37.662Z,69.73
2022-10-04T21:21:49.604Z,69.73
2022-10-04T21:26:58.029Z,69.64
2022-10-04T21:32:00.146Z,69.56
2022-10-04T21:37:02.235Z,69.18
2022-10-04T21:42:04.573Z,69.50
2022-10-04T21:47:06.702Z,69.64
2022-10-04T21:52:08.535Z,69.25
2022-10-04T21:57:11.475Z,69.56
2022-10-04T22:02:14.610Z,69.60
2022-10-04T22:07:16.467Z,69.59
2022-10-04T22:12:18.464Z,69.70
2022-10-04T22:17:20.271Z,69.70
2022-10-04T22:22:22.142Z,69.52
2022-10-04T22:27:30.366Z,69.61
2022-10-04T22:32:32.595Z,69.68
2022-10-04T22:37:34.576Z,69.79
2022-10-04T22:42:36.422Z,69.63
2022-10-04T22:47:38.247Z,69.63
2022-10-04T22:52:40.043Z,69.66
2022-10-04T22:57:41.947Z,69.69
2022-10-04T23:02:43.763Z,69.71
2022-10-04T23:07:47.569Z,69.55
2022-10-04T23:12:49.685Z,69.63
2022-10-04T23:17:57.496Z,69.51
2022-10-04T23:22:59.628Z,69.56
2022-10-04T23:28:05.934Z,69.34
2022-10-04T23:33:17.954Z,69.56
2022-10-04T23:38:22.729Z,69.40
2022-10-04T23:43:25.846Z,69.35
2022-10-04T23:48:32.407Z,69.43
2022-10-04T23:53:35.166Z,69.52
2022-10-04T23:58:41.158Z,69.41
